Terminal Aerodrome Forecast
Issued by NWS Cleveland, OH

Home | Current Version | Previous Version | Text Only | Print | Product List | Glossary On
Versions: 1 2 3 4 5 6 7 8 9 10 11 12 13 14 15 16 17 18 19 20 21
000
FTUS41 KCLE 120611 AAA
TAFERI
TAF AMD
KERI 120611Z 1206/1306 17006KT 3SM -SHSN OVC025
      TEMPO 1206/1209 1 1/2SM -SN OVC015
     FM120900 28010KT 1SM -SN BKN008 OVC015
     FM121400 30015G25KT 5SM -SHSN OVC015
     FM121900 30020G30KT 1 1/2SM -SHSN SCT008 OVC012=

USA.gov is the U.S. government's official web portal to all federal, state and local government web resources and services.